sensor_id;sensor_type;location;lat;lon;timestamp;temperature;humidity
69261;DHT22;56378;52.404;20.816;2022-10-16T00:01:12;12.00;95.90
69261;DHT22;56378;52.404;20.816;2022-10-16T00:03:39;12.00;95.70
69261;DHT22;56378;52.404;20.816;2022-10-16T00:06:06;12.00;95.40
69261;DHT22;56378;52.404;20.816;2022-10-16T00:08:33;12.00;95.60
69261;DHT22;56378;52.404;20.816;2022-10-16T00:11:22;12.00;95.90
69261;DHT22;56378;52.404;20.816;2022-10-16T00:13:50;12.00;95.70
69261;DHT22;56378;52.404;20.816;2022-10-16T00:16:18;12.00;95.50
69261;DHT22;56378;52.404;20.816;2022-10-16T00:18:44;12.00;96.00
69261;DHT22;56378;52.404;20.816;2022-10-16T00:21:12;12.00;95.90
69261;DHT22;56378;52.404;20.816;2022-10-16T00:23:38;12.00;95.90
69261;DHT22;56378;52.404;20.816;2022-10-16T00:26:07;12.00;95.70
69261;DHT22;56378;52.404;20.816;2022-10-16T00:28:34;12.00;95.60
69261;DHT22;56378;52.404;20.816;2022-10-16T00:31:03;12.00;95.70
69261;DHT22;56378;52.404;20.816;2022-10-16T00:33:29;12.00;95.50
69261;DHT22;56378;52.404;20.816;2022-10-16T00:35:58;12.00;95.30
69261;DHT22;56378;52.404;20.816;2022-10-16T00:38:24;12.00;95.30
69261;DHT22;56378;52.404;20.816;2022-10-16T00:40:49;12.00;95.50
69261;DHT22;56378;52.404;20.816;2022-10-16T00:43:41;12.00;95.50
69261;DHT22;56378;52.404;20.816;2022-10-16T00:46:40;12.00;95.60
69261;DHT22;56378;52.404;20.816;2022-10-16T00:49:10;12.00;95.70
69261;DHT22;56378;52.404;20.816;2022-10-16T00:51:46;11.90;95.60
69261;DHT22;56378;52.404;20.816;2022-10-16T00:54:33;12.00;95.70
69261;DHT22;56378;52.404;20.816;2022-10-16T00:57:05;12.00;95.80
69261;DHT22;56378;52.404;20.816;2022-10-16T00:59:37;11.90;96.00
69261;DHT22;56378;52.404;20.816;2022-10-16T01:02:05;12.00;96.20
69261;DHT22;56378;52.404;20.816;2022-10-16T01:04:41;11.90;96.10
69261;DHT22;56378;52.404;20.816;2022-10-16T01:10:06;11.90;96.40
69261;DHT22;56378;52.404;20.816;2022-10-16T01:12:44;11.90;96.50
69261;DHT22;56378;52.404;20.816;2022-10-16T01:15:27;11.90;96.20
69261;DHT22;56378;52.404;20.816;2022-10-16T01:18:18;11.90;95.90
69261;DHT22;56378;52.404;20.816;2022-10-16T01:21:12;11.90;95.80
69261;DHT22;56378;52.404;20.816;2022-10-16T01:29:44;11.90;95.50
69261;DHT22;56378;52.404;20.816;2022-10-16T01:32:32;11.90;95.30
69261;DHT22;56378;52.404;20.816;2022-10-16T01:35:22;12.00;94.90
69261;DHT22;56378;52.404;20.816;2022-10-16T01:38:10;12.00;94.70
69261;DHT22;56378;52.404;20.816;2022-10-16T01:40:40;12.00;94.60
69261;DHT22;56378;52.404;20.816;2022-10-16T01:43:14;12.00;94.40
69261;DHT22;56378;52.404;20.816;2022-10-16T01:45:41;12.00;94.40
69261;DHT22;56378;52.404;20.816;2022-10-16T01:48:12;12.00;94.30
69261;DHT22;56378;52.404;20.816;2022-10-16T01:50:41;12.00;94.10
69261;DHT22;56378;52.404;20.816;2022-10-16T01:53:12;12.00;94.00
69261;DHT22;56378;52.404;20.816;2022-10-16T01:55:41;12.00;94.10
69261;DHT22;56378;52.404;20.816;2022-10-16T01:58:12;12.00;94.10
69261;DHT22;56378;52.404;20.816;2022-10-16T02:00:42;12.00;94.20
69261;DHT22;56378;52.404;20.816;2022-10-16T02:03:11;12.00;94.20
69261;DHT22;56378;52.404;20.816;2022-10-16T02:05:45;12.00;94.30
69261;DHT22;56378;52.404;20.816;2022-10-16T02:08:11;12.00;94.20
69261;DHT22;56378;52.404;20.816;2022-10-16T02:10:38;12.00;94.20
69261;DHT22;56378;52.404;20.816;2022-10-16T02:13:17;12.00;94.30
69261;DHT22;56378;52.404;20.816;2022-10-16T02:15:43;12.00;94.30
69261;DHT22;56378;52.404;20.816;2022-10-16T02:18:09;12.00;94.20
69261;DHT22;56378;52.404;20.816;2022-10-16T02:21:04;12.00;94.20
69261;DHT22;56378;52.404;20.816;2022-10-16T02:23:49;12.00;94.20
69261;DHT22;56378;52.404;20.816;2022-10-16T02:26:30;12.00;94.00
69261;DHT22;56378;52.404;20.816;2022-10-16T02:29:01;12.00;93.80
69261;DHT22;56378;52.404;20.816;2022-10-16T02:31:34;12.00;93.80
69261;DHT22;56378;52.404;20.816;2022-10-16T02:34:02;12.00;93.70
69261;DHT22;56378;52.404;20.816;2022-10-16T02:36:31;12.00;93.60
69261;DHT22;56378;52.404;20.816;2022-10-16T02:38:58;12.00;93.60
69261;DHT22;56378;52.404;20.816;2022-10-16T02:41:26;12.00;93.60
69261;DHT22;56378;52.404;20.816;2022-10-16T02:43:52;12.00;93.50
69261;DHT22;56378;52.404;20.816;2022-10-16T02:46:18;12.00;93.60
69261;DHT22;56378;52.404;20.816;2022-10-16T02:48:44;12.00;93.90
69261;DHT22;56378;52.404;20.816;2022-10-16T02:51:10;12.00;94.00
69261;DHT22;56378;52.404;20.816;2022-10-16T02:53:35;12.00;93.70
69261;DHT22;56378;52.404;20.816;2022-10-16T02:56:01;12.00;93.80
69261;DHT22;56378;52.404;20.816;2022-10-16T02:58:27;12.00;93.80
69261;DHT22;56378;52.404;20.816;2022-10-16T03:00:52;12.00;93.80
69261;DHT22;56378;52.404;20.816;2022-10-16T03:03:18;12.00;93.60
69261;DHT22;56378;52.404;20.816;2022-10-16T03:05:44;12.00;93.40
69261;DHT22;56378;52.404;20.816;2022-10-16T03:08:12;12.00;93.20
69261;DHT22;56378;52.404;20.816;2022-10-16T03:10:37;12.00;93.20
69261;DHT22;56378;52.404;20.816;2022-10-16T03:13:03;12.00;93.20
69261;DHT22;56378;52.404;20.816;2022-10-16T03:15:29;12.00;93.30
69261;DHT22;56378;52.404;20.816;2022-10-16T03:17:57;12.00;93.40
69261;DHT22;56378;52.404;20.816;2022-10-16T03:20:23;12.00;93.50
69261;DHT22;56378;52.404;20.816;2022-10-16T03:22:49;12.00;93.40
69261;DHT22;56378;52.404;20.816;2022-10-16T03:25:14;12.00;93.30
69261;DHT22;56378;52.404;20.816;2022-10-16T03:27:40;12.00;93.20
69261;DHT22;56378;52.404;20.816;2022-10-16T03:30:07;12.00;93.20
69261;DHT22;56378;52.404;20.816;2022-10-16T03:32:33;12.00;93.10
69261;DHT22;56378;52.404;20.816;2022-10-16T03:34:58;12.00;93.00
69261;DHT22;56378;52.404;20.816;2022-10-16T03:37:24;12.00;93.10
69261;DHT22;56378;52.404;20.816;2022-10-16T03:39:50;12.00;92.90
69261;DHT22;56378;52.404;20.816;2022-10-16T03:42:15;12.00;92.80
69261;DHT22;56378;52.404;20.816;2022-10-16T03:44:45;12.00;92.80
69261;DHT22;56378;52.404;20.816;2022-10-16T03:47:10;12.00;92.70
69261;DHT22;56378;52.404;20.816;2022-10-16T03:49:36;12.00;92.80
69261;DHT22;56378;52.404;20.816;2022-10-16T03:52:02;12.00;92.80
69261;DHT22;56378;52.404;20.816;2022-10-16T03:54:28;12.00;92.90
69261;DHT22;56378;52.404;20.816;2022-10-16T03:56:53;12.00;93.00
69261;DHT22;56378;52.404;20.816;2022-10-16T03:59:19;11.90;92.90
69261;DHT22;56378;52.404;20.816;2022-10-16T04:01:45;11.90;93.00
69261;DHT22;56378;52.404;20.816;2022-10-16T04:04:11;11.90;92.90
69261;DHT22;56378;52.404;20.816;2022-10-16T04:06:36;11.90;93.10
69261;DHT22;56378;52.404;20.816;2022-10-16T04:09:02;11.90;93.20
69261;DHT22;56378;52.404;20.816;2022-10-16T04:11:28;11.90;93.30
69261;DHT22;56378;52.404;20.816;2022-10-16T04:13:54;11.90;93.40
69261;DHT22;56378;52.404;20.816;2022-10-16T04:16:19;11.80;93.50
69261;DHT22;56378;52.404;20.816;2022-10-16T04:18:45;11.80;93.50
69261;DHT22;56378;52.404;20.816;2022-10-16T04:21:11;11.80;93.40
69261;DHT22;56378;52.404;20.816;2022-10-16T04:23:37;11.80;93.50
69261;DHT22;56378;52.404;20.816;2022-10-16T04:26:03;11.80;93.30
69261;DHT22;56378;52.404;20.816;2022-10-16T04:28:28;11.80;93.10
69261;DHT22;56378;52.404;20.816;2022-10-16T04:30:54;11.70;92.70
69261;DHT22;56378;52.404;20.816;2022-10-16T04:33:20;11.70;92.40
69261;DHT22;56378;52.404;20.816;2022-10-16T04:35:46;11.60;92.40
69261;DHT22;56378;52.404;20.816;2022-10-16T04:38:11;11.60;92.30
69261;DHT22;56378;52.404;20.816;2022-10-16T04:40:42;11.50;91.50
69261;DHT22;56378;52.404;20.816;2022-10-16T04:43:07;11.50;91.30
69261;DHT22;56378;52.404;20.816;2022-10-16T04:45:33;11.40;91.10
69261;DHT22;56378;52.404;20.816;2022-10-16T04:48:00;11.30;91.20
69261;DHT22;56378;52.404;20.816;2022-10-16T04:50:25;11.30;91.10
69261;DHT22;56378;52.404;20.816;2022-10-16T04:52:51;11.20;91.30
69261;DHT22;56378;52.404;20.816;2022-10-16T04:55:17;11.10;91.50
69261;DHT22;56378;52.404;20.816;2022-10-16T04:57:43;11.10;91.50
69261;DHT22;56378;52.404;20.816;2022-10-16T05:00:09;11.00;91.40
69261;DHT22;56378;52.404;20.816;2022-10-16T05:02:35;10.90;91.60
69261;DHT22;56378;52.404;20.816;2022-10-16T05:05:01;10.90;91.80
69261;DHT22;56378;52.404;20.816;2022-10-16T05:07:26;10.80;91.80
69261;DHT22;56378;52.404;20.816;2022-10-16T05:09:52;10.80;92.20
69261;DHT22;56378;52.404;20.816;2022-10-16T05:12:19;10.70;92.10
69261;DHT22;56378;52.404;20.816;2022-10-16T05:14:44;10.70;92.10
69261;DHT22;56378;52.404;20.816;2022-10-16T05:17:10;10.60;92.30
69261;DHT22;56378;52.404;20.816;2022-10-16T05:19:36;10.60;92.60
69261;DHT22;56378;52.404;20.816;2022-10-16T05:22:02;10.60;92.80
69261;DHT22;56378;52.404;20.816;2022-10-16T05:24:27;10.50;92.60
69261;DHT22;56378;52.404;20.816;2022-10-16T05:26:53;10.50;92.90
69261;DHT22;56378;52.404;20.816;2022-10-16T05:29:19;10.50;93.10
69261;DHT22;56378;52.404;20.816;2022-10-16T05:31:45;10.50;93.40
69261;DHT22;56378;52.404;20.816;2022-10-16T05:34:11;10.40;93.30
69261;DHT22;56378;52.404;20.816;2022-10-16T05:36:40;10.40;93.40
69261;DHT22;56378;52.404;20.816;2022-10-16T05:39:05;10.40;93.70
69261;DHT22;56378;52.404;20.816;2022-10-16T05:41:31;10.50;94.00
69261;DHT22;56378;52.404;20.816;2022-10-16T05:43:57;10.40;94.00
69261;DHT22;56378;52.404;20.816;2022-10-16T05:46:23;10.50;94.30
69261;DHT22;56378;52.404;20.816;2022-10-16T05:48:51;10.40;94.50
69261;DHT22;56378;52.404;20.816;2022-10-16T05:51:16;10.50;94.60
69261;DHT22;56378;52.404;20.816;2022-10-16T05:53:42;10.50;94.90
69261;DHT22;56378;52.404;20.816;2022-10-16T05:56:10;10.50;95.00
69261;DHT22;56378;52.404;20.816;2022-10-16T05:58:37;10.50;95.10
69261;DHT22;56378;52.404;20.816;2022-10-16T06:01:09;10.50;95.30
69261;DHT22;56378;52.404;20.816;2022-10-16T06:03:36;10.60;95.20
69261;DHT22;56378;52.404;20.816;2022-10-16T06:06:16;10.60;95.30
69261;DHT22;56378;52.404;20.816;2022-10-16T06:08:43;10.60;95.40
69261;DHT22;56378;52.404;20.816;2022-10-16T06:11:14;10.60;95.40
69261;DHT22;56378;52.404;20.816;2022-10-16T06:13:40;10.70;95.80
69261;DHT22;56378;52.404;20.816;2022-10-16T06:16:09;10.70;96.00
69261;DHT22;56378;52.404;20.816;2022-10-16T06:18:35;10.80;96.10
69261;DHT22;56378;52.404;20.816;2022-10-16T06:21:10;10.90;96.30
69261;DHT22;56378;52.404;20.816;2022-10-16T06:23:37;10.90;96.20
69261;DHT22;56378;52.404;20.816;2022-10-16T06:26:11;11.00;96.10
69261;DHT22;56378;52.404;20.816;2022-10-16T06:28:37;11.10;95.90
69261;DHT22;56378;52.404;20.816;2022-10-16T06:31:05;11.20;95.50
69261;DHT22;56378;52.404;20.816;2022-10-16T06:33:31;11.30;95.40
69261;DHT22;56378;52.404;20.816;2022-10-16T06:36:04;11.40;95.10
69261;DHT22;56378;52.404;20.816;2022-10-16T06:38:31;11.50;94.80
69261;DHT22;56378;52.404;20.816;2022-10-16T06:40:58;11.60;94.40
69261;DHT22;56378;52.404;20.816;2022-10-16T06:43:24;11.60;94.20
69261;DHT22;56378;52.404;20.816;2022-10-16T06:45:54;11.80;94.20
69261;DHT22;56378;52.404;20.816;2022-10-16T06:48:20;11.80;93.70
69261;DHT22;56378;52.404;20.816;2022-10-16T06:51:00;11.90;93.10
69261;DHT22;56378;52.404;20.816;2022-10-16T06:53:29;12.00;93.50
69261;DHT22;56378;52.404;20.816;2022-10-16T06:55:56;12.10;92.70
69261;DHT22;56378;52.404;20.816;2022-10-16T06:58:22;12.10;92.50
69261;DHT22;56378;52.404;20.816;2022-10-16T07:00:47;12.20;92.80
69261;DHT22;56378;52.404;20.816;2022-10-16T07:03:14;12.30;92.40
69261;DHT22;56378;52.404;20.816;2022-10-16T07:05:41;12.30;92.00
69261;DHT22;56378;52.404;20.816;2022-10-16T07:08:07;12.40;91.80
69261;DHT22;56378;52.404;20.816;2022-10-16T07:10:34;12.40;91.70
69261;DHT22;56378;52.404;20.816;2022-10-16T07:13:00;12.40;91.40
69261;DHT22;56378;52.404;20.816;2022-10-16T07:15:26;12.40;90.90
69261;DHT22;56378;52.404;20.816;2022-10-16T07:17:52;12.40;90.50
69261;DHT22;56378;52.404;20.816;2022-10-16T07:20:18;12.40;90.20
69261;DHT22;56378;52.404;20.816;2022-10-16T07:22:44;12.40;89.80
69261;DHT22;56378;52.404;20.816;2022-10-16T07:25:10;12.40;89.90
69261;DHT22;56378;52.404;20.816;2022-10-16T07:27:37;12.40;90.20
69261;DHT22;56378;52.404;20.816;2022-10-16T07:30:04;12.40;90.60
69261;DHT22;56378;52.404;20.816;2022-10-16T07:32:30;12.40;90.80
69261;DHT22;56378;52.404;20.816;2022-10-16T07:35:03;12.40;90.60
69261;DHT22;56378;52.404;20.816;2022-10-16T07:37:28;12.40;90.20
69261;DHT22;56378;52.404;20.816;2022-10-16T07:39:54;12.40;90.30
69261;DHT22;56378;52.404;20.816;2022-10-16T07:42:20;12.40;90.30
69261;DHT22;56378;52.404;20.816;2022-10-16T07:44:46;12.40;90.30
69261;DHT22;56378;52.404;20.816;2022-10-16T07:47:11;12.40;90.10
69261;DHT22;56378;52.404;20.816;2022-10-16T07:49:37;12.50;90.70
69261;DHT22;56378;52.404;20.816;2022-10-16T07:52:03;12.50;90.70
69261;DHT22;56378;52.404;20.816;2022-10-16T07:54:28;12.60;90.60
69261;DHT22;56378;52.404;20.816;2022-10-16T07:56:54;12.60;90.20
69261;DHT22;56378;52.404;20.816;2022-10-16T07:59:20;12.60;90.40
69261;DHT22;56378;52.404;20.816;2022-10-16T08:01:46;12.70;90.00
69261;DHT22;56378;52.404;20.816;2022-10-16T08:04:11;12.70;89.30
69261;DHT22;56378;52.404;20.816;2022-10-16T08:06:39;12.70;89.20
69261;DHT22;56378;52.404;20.816;2022-10-16T08:09:06;12.70;89.10
69261;DHT22;56378;52.404;20.816;2022-10-16T08:11:32;12.70;89.80
69261;DHT22;56378;52.404;20.816;2022-10-16T08:13:58;12.70;89.80
69261;DHT22;56378;52.404;20.816;2022-10-16T08:16:24;12.80;89.50
69261;DHT22;56378;52.404;20.816;2022-10-16T08:18:50;12.80;89.50
69261;DHT22;56378;52.404;20.816;2022-10-16T08:21:18;12.80;89.60
69261;DHT22;56378;52.404;20.816;2022-10-16T08:23:44;12.90;89.90
69261;DHT22;56378;52.404;20.816;2022-10-16T08:26:11;12.90;90.30
69261;DHT22;56378;52.404;20.816;2022-10-16T08:28:38;12.90;89.50
69261;DHT22;56378;52.404;20.816;2022-10-16T08:31:12;13.00;90.20
69261;DHT22;56378;52.404;20.816;2022-10-16T08:33:39;13.00;90.40
69261;DHT22;56378;52.404;20.816;2022-10-16T08:36:06;13.10;89.40
69261;DHT22;56378;52.404;20.816;2022-10-16T08:38:33;13.10;89.20
69261;DHT22;56378;52.404;20.816;2022-10-16T08:41:23;13.10;89.60
69261;DHT22;56378;52.404;20.816;2022-10-16T08:47:09;13.20;89.10
69261;DHT22;56378;52.404;20.816;2022-10-16T08:49:58;13.20;88.60
69261;DHT22;56378;52.404;20.816;2022-10-16T08:52:29;13.20;88.70
69261;DHT22;56378;52.404;20.816;2022-10-16T08:54:56;13.20;89.10
69261;DHT22;56378;52.404;20.816;2022-10-16T08:57:24;13.20;89.00
69261;DHT22;56378;52.404;20.816;2022-10-16T08:59:52;13.20;88.70
69261;DHT22;56378;52.404;20.816;2022-10-16T09:02:38;13.30;88.70
69261;DHT22;56378;52.404;20.816;2022-10-16T09:15:42;13.30;88.70
69261;DHT22;56378;52.404;20.816;2022-10-16T09:23:40;13.50;88.40
69261;DHT22;56378;52.404;20.816;2022-10-16T09:26:11;13.50;88.60
69261;DHT22;56378;52.404;20.816;2022-10-16T09:28:37;13.50;88.50
69261;DHT22;56378;52.404;20.816;2022-10-16T09:31:03;13.50;88.60
69261;DHT22;56378;52.404;20.816;2022-10-16T09:33:33;13.40;88.30
69261;DHT22;56378;52.404;20.816;2022-10-16T09:36:06;13.40;88.20
69261;DHT22;56378;52.404;20.816;2022-10-16T09:56:37;13.70;89.60
69261;DHT22;56378;52.404;20.816;2022-10-16T10:06:24;13.90;88.80
69261;DHT22;56378;52.404;20.816;2022-10-16T10:08:56;13.90;89.30
69261;DHT22;56378;52.404;20.816;2022-10-16T10:17:02;13.90;89.90
69261;DHT22;56378;52.404;20.816;2022-10-16T10:28:06;14.10;88.50
69261;DHT22;56378;52.404;20.816;2022-10-16T10:46:41;14.30;88.50
69261;DHT22;56378;52.404;20.816;2022-10-16T10:49:36;14.30;88.70
69261;DHT22;56378;52.404;20.816;2022-10-16T10:58:00;14.30;88.20
69261;DHT22;56378;52.404;20.816;2022-10-16T11:04:03;14.40;88.60
69261;DHT22;56378;52.404;20.816;2022-10-16T11:06:20;14.40;89.40
69261;DHT22;56378;52.404;20.816;2022-10-16T11:09:14;14.40;90.20
69261;DHT22;56378;52.404;20.816;2022-10-16T11:12:05;14.50;89.10
69261;DHT22;56378;52.404;20.816;2022-10-16T11:18:06;14.50;89.70
69261;DHT22;56378;52.404;20.816;2022-10-16T11:20:47;14.60;88.90
69261;DHT22;56378;52.404;20.816;2022-10-16T11:23:16;14.60;88.70
69261;DHT22;56378;52.404;20.816;2022-10-16T11:25:48;14.60;89.00
69261;DHT22;56378;52.404;20.816;2022-10-16T11:31:36;14.60;88.20
69261;DHT22;56378;52.404;20.816;2022-10-16T11:39:23;14.70;88.70
69261;DHT22;56378;52.404;20.816;2022-10-16T11:44:38;14.80;89.00
69261;DHT22;56378;52.404;20.816;2022-10-16T11:47:12;14.80;89.00
69261;DHT22;56378;52.404;20.816;2022-10-16T11:49:44;14.80;87.40
69261;DHT22;56378;52.404;20.816;2022-10-16T11:52:43;14.80;87.10
69261;DHT22;56378;52.404;20.816;2022-10-16T11:55:14;14.70;87.30
69261;DHT22;56378;52.404;20.816;2022-10-16T11:58:00;14.60;87.60
69261;DHT22;56378;52.404;20.816;2022-10-16T12:00:55;14.60;89.50
69261;DHT22;56378;52.404;20.816;2022-10-16T12:06:46;14.60;88.90
69261;DHT22;56378;52.404;20.816;2022-10-16T12:09:27;14.60;88.90
69261;DHT22;56378;52.404;20.816;2022-10-16T12:11:54;14.70;89.60
69261;DHT22;56378;52.404;20.816;2022-10-16T12:14:21;14.70;89.20
69261;DHT22;56378;52.404;20.816;2022-10-16T12:16:51;14.70;88.80
69261;DHT22;56378;52.404;20.816;2022-10-16T12:19:20;14.70;89.70
69261;DHT22;56378;52.404;20.816;2022-10-16T12:21:46;14.80;89.70
69261;DHT22;56378;52.404;20.816;2022-10-16T12:24:31;14.90;88.90
69261;DHT22;56378;52.404;20.816;2022-10-16T12:26:57;14.90;88.70
69261;DHT22;56378;52.404;20.816;2022-10-16T12:29:36;14.90;89.00
69261;DHT22;56378;52.404;20.816;2022-10-16T12:32:05;14.90;88.20
69261;DHT22;56378;52.404;20.816;2022-10-16T12:37:24;14.90;88.30
69261;DHT22;56378;52.404;20.816;2022-10-16T12:39:53;14.90;88.20
69261;DHT22;56378;52.404;20.816;2022-10-16T12:44:55;14.90;88.70
69261;DHT22;56378;52.404;20.816;2022-10-16T12:47:24;14.90;89.40
69261;DHT22;56378;52.404;20.816;2022-10-16T12:50:00;15.00;89.80
69261;DHT22;56378;52.404;20.816;2022-10-16T12:52:37;15.00;89.10
69261;DHT22;56378;52.404;20.816;2022-10-16T12:55:05;15.10;88.90
69261;DHT22;56378;52.404;20.816;2022-10-16T13:00:54;15.30;88.50
69261;DHT22;56378;52.404;20.816;2022-10-16T13:11:10;15.50;85.60
69261;DHT22;56378;52.404;20.816;2022-10-16T13:19:01;15.40;85.80
69261;DHT22;56378;52.404;20.816;2022-10-16T13:27:23;15.30;86.30
69261;DHT22;56378;52.404;20.816;2022-10-16T13:30:02;15.20;86.50
69261;DHT22;56378;52.404;20.816;2022-10-16T13:32:44;15.20;86.60
69261;DHT22;56378;52.404;20.816;2022-10-16T13:35:26;15.10;86.80
69261;DHT22;56378;52.404;20.816;2022-10-16T13:38:04;15.10;87.40
69261;DHT22;56378;52.404;20.816;2022-10-16T13:40:30;15.00;87.80
69261;DHT22;56378;52.404;20.816;2022-10-16T13:42:56;15.00;87.70
69261;DHT22;56378;52.404;20.816;2022-10-16T13:45:25;15.00;88.00
69261;DHT22;56378;52.404;20.816;2022-10-16T13:48:11;14.90;88.10
69261;DHT22;56378;52.404;20.816;2022-10-16T13:50:37;14.90;88.30
69261;DHT22;56378;52.404;20.816;2022-10-16T13:53:09;14.90;88.60
69261;DHT22;56378;52.404;20.816;2022-10-16T13:55:38;14.90;88.80
69261;DHT22;56378;52.404;20.816;2022-10-16T13:58:14;14.80;88.60
69261;DHT22;56378;52.404;20.816;2022-10-16T14:00:41;14.80;88.90
69261;DHT22;56378;52.404;20.816;2022-10-16T14:03:18;14.80;89.00
69261;DHT22;56378;52.404;20.816;2022-10-16T14:05:58;14.70;89.30
69261;DHT22;56378;52.404;20.816;2022-10-16T14:11:46;14.60;89.70
69261;DHT22;56378;52.404;20.816;2022-10-16T14:14:13;14.60;90.10
69261;DHT22;56378;52.404;20.816;2022-10-16T14:16:43;14.60;90.20
69261;DHT22;56378;52.404;20.816;2022-10-16T14:19:25;14.60;90.50
69261;DHT22;56378;52.404;20.816;2022-10-16T14:21:53;14.60;90.80
69261;DHT22;56378;52.404;20.816;2022-10-16T14:24:45;14.60;90.70
69261;DHT22;56378;52.404;20.816;2022-10-16T14:27:31;14.60;90.90
69261;DHT22;56378;52.404;20.816;2022-10-16T14:30:17;14.50;91.10
69261;DHT22;56378;52.404;20.816;2022-10-16T14:32:54;14.50;91.10
69261;DHT22;56378;52.404;20.816;2022-10-16T14:35:38;14.50;91.20
69261;DHT22;56378;52.404;20.816;2022-10-16T14:38:06;14.50;91.60
69261;DHT22;56378;52.404;20.816;2022-10-16T14:40:47;14.50;91.60
69261;DHT22;56378;52.404;20.816;2022-10-16T14:43:22;14.50;91.80
69261;DHT22;56378;52.404;20.816;2022-10-16T14:45:53;14.50;91.70
69261;DHT22;56378;52.404;20.816;2022-10-16T14:48:22;14.50;91.70
69261;DHT22;56378;52.404;20.816;2022-10-16T14:50:48;14.50;91.70
69261;DHT22;56378;52.404;20.816;2022-10-16T14:53:14;14.50;91.60
69261;DHT22;56378;52.404;20.816;2022-10-16T14:55:41;14.50;92.10
69261;DHT22;56378;52.404;20.816;2022-10-16T14:58:27;14.50;91.90
69261;DHT22;56378;52.404;20.816;2022-10-16T15:00:52;14.50;91.90
69261;DHT22;56378;52.404;20.816;2022-10-16T15:03:18;14.40;92.20
69261;DHT22;56378;52.404;20.816;2022-10-16T15:05:44;14.50;92.10
69261;DHT22;56378;52.404;20.816;2022-10-16T15:08:09;14.40;92.10
69261;DHT22;56378;52.404;20.816;2022-10-16T15:10:43;14.40;92.30
69261;DHT22;56378;52.404;20.816;2022-10-16T15:13:12;14.40;92.20
69261;DHT22;56378;52.404;20.816;2022-10-16T15:15:45;14.40;92.20
69261;DHT22;56378;52.404;20.816;2022-10-16T15:18:17;14.40;92.30
69261;DHT22;56378;52.404;20.816;2022-10-16T15:20:50;14.40;92.40
69261;DHT22;56378;52.404;20.816;2022-10-16T15:23:19;14.40;92.40
69261;DHT22;56378;52.404;20.816;2022-10-16T15:25:47;14.40;92.50
69261;DHT22;56378;52.404;20.816;2022-10-16T15:28:19;14.40;92.40
69261;DHT22;56378;52.404;20.816;2022-10-16T15:30:46;14.40;92.80
69261;DHT22;56378;52.404;20.816;2022-10-16T15:33:26;14.40;92.90
69261;DHT22;56378;52.404;20.816;2022-10-16T15:35:58;14.40;93.10
69261;DHT22;56378;52.404;20.816;2022-10-16T15:38:24;14.40;92.90
69261;DHT22;56378;52.404;20.816;2022-10-16T15:40:51;14.40;92.90
69261;DHT22;56378;52.404;20.816;2022-10-16T15:43:17;14.40;92.90
69261;DHT22;56378;52.404;20.816;2022-10-16T15:45:44;14.40;93.00
69261;DHT22;56378;52.404;20.816;2022-10-16T15:48:13;14.30;93.00
69261;DHT22;56378;52.404;20.816;2022-10-16T15:50:39;14.30;93.00
69261;DHT22;56378;52.404;20.816;2022-10-16T15:53:05;14.30;93.00
69261;DHT22;56378;52.404;20.816;2022-10-16T15:55:31;14.30;92.90
69261;DHT22;56378;52.404;20.816;2022-10-16T15:57:56;14.30;93.20
69261;DHT22;56378;52.404;20.816;2022-10-16T16:00:22;14.30;93.20
69261;DHT22;56378;52.404;20.816;2022-10-16T16:02:52;14.30;93.50
69261;DHT22;56378;52.404;20.816;2022-10-16T16:05:19;14.30;93.40
69261;DHT22;56378;52.404;20.816;2022-10-16T16:07:45;14.30;93.20
69261;DHT22;56378;52.404;20.816;2022-10-16T16:10:11;14.30;93.20
69261;DHT22;56378;52.404;20.816;2022-10-16T16:12:38;14.30;93.30
69261;DHT22;56378;52.404;20.816;2022-10-16T16:15:05;14.30;93.40
69261;DHT22;56378;52.404;20.816;2022-10-16T16:17:32;14.30;93.20
69261;DHT22;56378;52.404;20.816;2022-10-16T16:20:00;14.30;93.30
69261;DHT22;56378;52.404;20.816;2022-10-16T16:22:26;14.30;93.20
69261;DHT22;56378;52.404;20.816;2022-10-16T16:24:53;14.20;93.30
69261;DHT22;56378;52.404;20.816;2022-10-16T16:27:19;14.20;93.30
69261;DHT22;56378;52.404;20.816;2022-10-16T16:32:51;14.20;93.30
69261;DHT22;56378;52.404;20.816;2022-10-16T16:35:18;14.20;93.20
69261;DHT22;56378;52.404;20.816;2022-10-16T16:37:49;14.20;93.40
69261;DHT22;56378;52.404;20.816;2022-10-16T16:40:17;14.20;93.60
69261;DHT22;56378;52.404;20.816;2022-10-16T16:42:43;14.20;93.40
69261;DHT22;56378;52.404;20.816;2022-10-16T16:45:09;14.20;93.50
69261;DHT22;56378;52.404;20.816;2022-10-16T16:47:35;14.20;94.40
69261;DHT22;56378;52.404;20.816;2022-10-16T16:50:00;14.20;94.90
69261;DHT22;56378;52.404;20.816;2022-10-16T16:52:30;14.20;95.10
69261;DHT22;56378;52.404;20.816;2022-10-16T16:54:58;14.20;95.30
69261;DHT22;56378;52.404;20.816;2022-10-16T16:57:24;14.10;95.50
69261;DHT22;56378;52.404;20.816;2022-10-16T16:59:52;14.10;96.00
69261;DHT22;56378;52.404;20.816;2022-10-16T17:02:18;14.10;96.40
69261;DHT22;56378;52.404;20.816;2022-10-16T17:04:44;14.10;96.50
69261;DHT22;56378;52.404;20.816;2022-10-16T17:07:10;14.00;96.90
69261;DHT22;56378;52.404;20.816;2022-10-16T17:09:35;14.00;97.10
69261;DHT22;56378;52.404;20.816;2022-10-16T17:12:01;14.00;97.20
69261;DHT22;56378;52.404;20.816;2022-10-16T17:14:27;13.90;97.50
69261;DHT22;56378;52.404;20.816;2022-10-16T17:16:52;13.90;97.80
69261;DHT22;56378;52.404;20.816;2022-10-16T17:19:19;13.90;97.90
69261;DHT22;56378;52.404;20.816;2022-10-16T17:21:48;13.80;98.20
69261;DHT22;56378;52.404;20.816;2022-10-16T17:24:15;13.80;98.30
69261;DHT22;56378;52.404;20.816;2022-10-16T17:26:40;13.80;98.30
69261;DHT22;56378;52.404;20.816;2022-10-16T17:29:13;13.70;98.30
69261;DHT22;56378;52.404;20.816;2022-10-16T17:31:39;13.70;98.60
69261;DHT22;56378;52.404;20.816;2022-10-16T17:34:07;13.70;99.30
69261;DHT22;56378;52.404;20.816;2022-10-16T17:36:35;13.70;99.70
69261;DHT22;56378;52.404;20.816;2022-10-16T17:39:05;13.70;99.90
69261;DHT22;56378;52.404;20.816;2022-10-16T17:41:32;13.60;99.90
69261;DHT22;56378;52.404;20.816;2022-10-16T17:43:58;13.60;99.90
69261;DHT22;56378;52.404;20.816;2022-10-16T17:46:24;13.60;99.90
69261;DHT22;56378;52.404;20.816;2022-10-16T17:48:52;13.70;99.90
69261;DHT22;56378;52.404;20.816;2022-10-16T17:51:24;13.70;99.90
69261;DHT22;56378;52.404;20.816;2022-10-16T17:53:52;13.60;99.90
69261;DHT22;56378;52.404;20.816;2022-10-16T17:56:18;13.70;99.90